createdAt,value
2019-02-14T00:01:47.253Z,0.84
2019-02-14T00:04:16.500Z,0.88
2019-02-14T00:06:45.760Z,0.84
2019-02-14T00:09:16.208Z,0.81
2019-02-14T00:11:45.452Z,0.78
2019-02-14T00:14:14.726Z,0.68
2019-02-14T00:16:43.959Z,0.62
2019-02-14T00:19:13.262Z,0.67
2019-02-14T00:21:42.490Z,0.64
2019-02-14T00:24:11.800Z,0.61
2019-02-14T00:26:41.033Z,0.58
2019-02-14T00:29:10.298Z,0.56
2019-02-14T00:31:39.549Z,0.57
2019-02-14T00:34:08.832Z,0.55
2019-02-14T00:36:38.076Z,0.54
2019-02-14T00:39:07.343Z,0.54
2019-02-14T00:41:36.568Z,0.48
2019-02-14T00:44:05.814Z,0.48
2019-02-14T00:46:35.103Z,0.49
2019-02-14T00:49:04.415Z,0.46
2019-02-14T00:51:33.668Z,0.44
2019-02-14T00:54:02.921Z,0.39
2019-02-14T00:56:32.256Z,0.39
2019-02-14T00:59:01.533Z,0.35
2019-02-14T01:01:30.790Z,0.32
2019-02-14T01:04:00.039Z,0.25
2019-02-14T01:06:29.291Z,0.22
2019-02-14T01:08:58.560Z,0.20
2019-02-14T01:11:27.798Z,0.17
2019-02-14T01:13:57.057Z,0.17
2019-02-14T01:16:26.279Z,0.19
2019-02-14T01:18:55.562Z,0.22
2019-02-14T01:21:25.661Z,0.16
2019-02-14T01:23:54.965Z,0.05
2019-02-14T01:26:24.249Z,0.03
2019-02-14T01:28:53.500Z,0.03
2019-02-14T01:31:22.801Z,0.06
2019-02-14T01:33:52.077Z,-0.02
2019-02-14T01:36:21.345Z,-0.07
2019-02-14T01:38:50.611Z,-0.19
2019-02-14T01:41:19.831Z,-0.27
2019-02-14T01:43:49.120Z,-0.30
2019-02-14T01:46:18.388Z,-0.32
2019-02-14T01:48:47.643Z,-0.31
2019-02-14T01:51:16.869Z,-0.34
2019-02-14T01:53:46.141Z,-0.34
2019-02-14T01:56:15.408Z,-0.32
2019-02-14T01:58:44.681Z,-0.34
2019-02-14T02:01:13.918Z,-0.31
2019-02-14T02:03:43.174Z,-0.34
2019-02-14T02:06:12.421Z,-0.35
2019-02-14T02:08:41.690Z,-0.42
2019-02-14T02:11:12.309Z,-0.34
2019-02-14T02:13:41.565Z,-0.31
2019-02-14T02:16:10.806Z,-0.37
2019-02-14T02:18:40.393Z,-0.36
2019-02-14T02:21:09.638Z,-0.36
2019-02-14T02:23:38.930Z,-0.33
2019-02-14T02:26:08.156Z,-0.35
2019-02-14T02:28:37.372Z,-0.35
2019-02-14T02:31:06.620Z,-0.25
2019-02-14T02:33:35.849Z,-0.29
2019-02-14T02:36:05.116Z,-0.27
2019-02-14T02:38:34.350Z,-0.23
2019-02-14T02:41:03.604Z,-0.22
2019-02-14T02:43:32.851Z,-0.19
2019-02-14T02:46:02.128Z,-0.15
2019-02-14T02:48:31.389Z,-0.15
2019-02-14T02:51:00.624Z,-0.17
2019-02-14T02:53:29.845Z,-0.16
2019-02-14T02:55:59.089Z,-0.20
2019-02-14T02:58:28.318Z,-0.33
2019-02-14T03:00:57.579Z,-0.35
2019-02-14T03:03:26.826Z,-0.36
2019-02-14T03:05:56.118Z,-0.40
2019-02-14T03:08:25.361Z,-0.44
2019-02-14T03:10:54.649Z,-0.38
2019-02-14T03:13:23.995Z,-0.37
2019-02-14T03:15:53.207Z,-0.36
2019-02-14T03:18:22.430Z,-0.43
2019-02-14T03:20:51.687Z,-0.36
2019-02-14T03:23:20.979Z,-0.35
2019-02-14T03:25:50.251Z,-0.31
2019-02-14T03:28:19.498Z,-0.35
2019-02-14T03:30:48.757Z,-0.41
2019-02-14T03:33:18.047Z,-0.45
2019-02-14T03:35:47.291Z,-0.42
2019-02-14T03:38:16.536Z,-0.37
2019-02-14T03:40:45.807Z,-0.35
2019-02-14T03:43:15.067Z,-0.33
2019-02-14T03:45:44.406Z,-0.34
2019-02-14T03:48:13.646Z,-0.29
2019-02-14T03:50:42.914Z,-0.38
2019-02-14T03:53:12.148Z,-0.50
2019-02-14T03:55:41.429Z,-0.42
2019-02-14T03:58:10.660Z,-0.49
2019-02-14T04:00:39.911Z,-0.43
2019-02-14T04:03:09.143Z,-0.44
2019-02-14T04:05:38.394Z,-0.42
2019-02-14T04:08:07.644Z,-0.38
2019-02-14T04:10:36.945Z,-0.44
2019-02-14T04:13:06.205Z,-0.38
2019-02-14T04:15:35.467Z,-0.39
2019-02-14T04:18:04.708Z,-0.38
2019-02-14T04:20:34.002Z,-0.36
2019-02-14T04:23:03.255Z,-0.32
2019-02-14T04:25:32.515Z,-0.35
2019-02-14T04:28:01.926Z,-0.36
2019-02-14T04:30:31.225Z,-0.49
2019-02-14T04:33:00.469Z,-0.57
2019-02-14T04:35:29.743Z,-0.60
2019-02-14T04:37:58.998Z,-0.63
2019-02-14T04:40:33.580Z,-0.69
2019-02-14T04:42:59.220Z,-0.67
2019-02-14T04:45:28.590Z,-0.67
2019-02-14T04:47:57.854Z,-0.69
2019-02-14T04:50:27.120Z,-0.72
2019-02-14T04:52:56.392Z,-0.67
2019-02-14T04:55:25.637Z,-0.74
2019-02-14T04:57:54.871Z,-0.83
2019-02-14T05:00:24.121Z,-0.92
2019-02-14T05:02:53.374Z,-0.83
2019-02-14T05:05:22.672Z,-0.85
2019-02-14T05:07:51.947Z,-0.87
2019-02-14T05:10:21.263Z,-0.79
2019-02-14T05:12:50.487Z,-0.76
2019-02-14T05:15:19.765Z,-0.73
2019-02-14T05:17:49.038Z,-0.79
2019-02-14T05:20:18.328Z,-0.75
2019-02-14T05:22:47.579Z,-0.74
2019-02-14T05:25:16.859Z,-0.75
2019-02-14T05:27:46.116Z,-0.83
2019-02-14T05:30:15.374Z,-0.86
2019-02-14T05:32:44.615Z,-0.87
2019-02-14T05:35:13.896Z,-0.89
2019-02-14T05:37:43.143Z,-0.85
2019-02-14T05:40:12.392Z,-0.82
2019-02-14T05:42:41.685Z,-0.75
2019-02-14T05:45:11.389Z,-0.75
2019-02-14T05:47:40.688Z,-0.87
2019-02-14T05:50:10.190Z,-0.85
2019-02-14T05:52:39.498Z,-0.84
2019-02-14T05:55:10.079Z,-0.82
2019-02-14T05:57:39.436Z,-0.90
2019-02-14T06:00:10.655Z,-0.88
2019-02-14T06:02:39.908Z,-0.92
2019-02-14T06:05:09.163Z,-0.95
2019-02-14T06:07:38.463Z,-0.99
2019-02-14T06:10:08.237Z,-0.94
2019-02-14T06:12:37.506Z,-0.93
2019-02-14T06:15:07.411Z,-0.91
2019-02-14T06:17:36.706Z,-0.94
2019-02-14T06:20:06.303Z,-0.93
2019-02-14T06:22:35.577Z,-0.90
2019-02-14T06:25:04.929Z,-0.95
2019-02-14T06:27:34.192Z,-0.89
2019-02-14T06:30:03.455Z,-0.95
2019-02-14T06:32:32.718Z,-0.95
2019-02-14T06:35:03.462Z,-0.93
2019-02-14T06:37:32.713Z,-0.87
2019-02-14T06:40:01.947Z,-0.80
2019-02-14T06:42:31.248Z,-0.79
2019-02-14T06:45:00.509Z,-0.74
2019-02-14T06:47:29.940Z,-0.67
2019-02-14T06:49:59.224Z,-0.54
2019-02-14T06:52:28.515Z,-0.52
2019-02-14T06:54:57.796Z,-0.50
2019-02-14T06:57:27.093Z,-0.42
2019-02-14T06:59:56.318Z,-0.27
2019-02-14T07:02:25.625Z,-0.03
2019-02-14T07:04:54.876Z,0.32
2019-02-14T07:07:24.127Z,0.50
2019-02-14T07:09:53.386Z,0.81
2019-02-14T07:12:22.898Z,1.02
2019-02-14T07:14:52.199Z,1.26
2019-02-14T07:17:21.588Z,1.57
2019-02-14T07:19:50.865Z,1.71
2019-02-14T07:22:20.135Z,1.97
2019-02-14T07:24:49.380Z,2.03
2019-02-14T07:27:18.698Z,2.08
2019-02-14T07:29:47.935Z,2.33
2019-02-14T07:32:17.198Z,2.78
2019-02-14T07:34:46.619Z,2.81
2019-02-14T07:37:15.890Z,3.38
2019-02-14T07:39:45.174Z,3.70
2019-02-14T07:42:14.485Z,3.99
2019-02-14T07:44:43.738Z,3.91
2019-02-14T07:47:13.055Z,4.01
2019-02-14T07:49:42.416Z,4.39
2019-02-14T07:52:11.747Z,4.72
2019-02-14T07:54:44.815Z,4.94
2019-02-14T07:57:14.060Z,5.20
2019-02-14T07:59:43.499Z,5.65
2019-02-14T08:02:12.761Z,5.83
2019-02-14T08:04:42.078Z,6.42
2019-02-14T08:07:11.318Z,6.90
2019-02-14T08:09:40.564Z,7.18
2019-02-14T08:12:09.834Z,7.28
2019-02-14T08:14:39.047Z,7.41
2019-02-14T08:17:08.300Z,7.35
2019-02-14T08:19:37.551Z,6.85
2019-02-14T08:22:06.808Z,6.78
2019-02-14T08:24:36.067Z,6.64
2019-02-14T08:27:05.333Z,6.47
2019-02-14T08:29:34.621Z,6.28
2019-02-14T08:32:03.880Z,6.20
2019-02-14T08:34:33.176Z,6.16
2019-02-14T08:37:02.433Z,6.42
2019-02-14T08:39:31.718Z,6.51
2019-02-14T08:42:00.949Z,6.67
2019-02-14T08:44:30.230Z,6.87
2019-02-14T08:46:59.492Z,7.22
2019-02-14T08:49:28.770Z,7.58
2019-02-14T08:51:58.028Z,8.00
2019-02-14T08:54:27.342Z,8.32
2019-02-14T08:56:56.615Z,8.18
2019-02-14T08:59:28.724Z,8.11
2019-02-14T09:01:57.991Z,8.28
2019-02-14T09:04:27.256Z,8.59
2019-02-14T09:06:56.487Z,8.94
2019-02-14T09:09:25.748Z,8.68
2019-02-14T09:11:55.023Z,7.91
2019-02-14T09:14:24.264Z,7.37
2019-02-14T09:16:53.507Z,6.89
2019-02-14T09:19:22.792Z,6.76
2019-02-14T09:21:52.013Z,7.54
2019-02-14T09:24:21.292Z,8.19
2019-02-14T09:26:50.533Z,8.44
2019-02-14T09:29:19.792Z,7.93
2019-02-14T09:31:49.054Z,7.90
2019-02-14T09:34:18.336Z,7.37
2019-02-14T09:36:47.561Z,6.70
2019-02-14T09:39:16.835Z,6.42
2019-02-14T09:41:46.122Z,6.62
2019-02-14T09:44:15.464Z,7.34
2019-02-14T09:46:44.754Z,7.47
2019-02-14T09:49:14.003Z,7.45
2019-02-14T09:51:43.261Z,7.39
2019-02-14T09:54:12.527Z,7.89
2019-02-14T09:56:41.775Z,8.40
2019-02-14T09:59:11.061Z,8.39
2019-02-14T10:01:40.257Z,8.38
2019-02-14T10:04:09.566Z,8.87
2019-02-14T10:06:38.910Z,9.74
2019-02-14T10:09:08.931Z,9.95
2019-02-14T10:11:38.146Z,10.47
2019-02-14T10:14:07.414Z,10.04
2019-02-14T10:16:36.688Z,9.83
2019-02-14T10:19:05.969Z,9.65
2019-02-14T10:21:35.199Z,9.86
2019-02-14T10:24:04.465Z,10.60
2019-02-14T10:26:33.724Z,10.82
2019-02-14T10:29:03.027Z,10.74
2019-02-14T10:31:32.300Z,10.44
2019-02-14T10:34:01.589Z,10.27
2019-02-14T10:36:30.971Z,10.24
2019-02-14T10:39:00.231Z,10.45
2019-02-14T10:41:29.493Z,10.63
2019-02-14T10:43:58.826Z,10.55
2019-02-14T10:46:28.072Z,10.63
2019-02-14T10:48:57.399Z,10.76
2019-02-14T10:51:26.679Z,11.16
2019-02-14T10:53:55.940Z,11.21
2019-02-14T10:56:25.257Z,11.68
2019-02-14T10:58:54.527Z,11.94
2019-02-14T11:01:23.791Z,12.01
2019-02-14T11:03:53.085Z,12.00
2019-02-14T11:06:22.441Z,12.57
2019-02-14T11:08:51.764Z,12.64
2019-02-14T11:11:21.096Z,12.94
2019-02-14T11:13:50.337Z,13.57
2019-02-14T11:16:19.591Z,14.50
2019-02-14T11:18:48.946Z,14.85
2019-02-14T11:21:18.310Z,15.27
2019-02-14T11:23:47.952Z,14.86
2019-02-14T11:26:17.254Z,14.30
2019-02-14T11:28:46.538Z,13.54
2019-02-14T11:31:15.853Z,12.60
2019-02-14T11:33:45.123Z,12.60
2019-02-14T11:36:14.417Z,12.31
2019-02-14T11:38:43.682Z,12.46
2019-02-14T11:41:14.574Z,12.15
2019-02-14T11:43:43.853Z,12.02
2019-02-14T11:46:13.124Z,12.48
2019-02-14T11:48:42.355Z,12.81
2019-02-14T11:51:11.611Z,12.70
2019-02-14T11:53:40.881Z,13.15
2019-02-14T11:56:10.174Z,13.17
2019-02-14T11:58:39.408Z,12.80
2019-02-14T12:01:08.667Z,12.46
2019-02-14T12:03:38.055Z,12.22
2019-02-14T12:06:07.338Z,12.16
2019-02-14T12:08:37.775Z,11.76
2019-02-14T12:11:07.055Z,11.81
2019-02-14T12:13:36.330Z,12.18
2019-02-14T12:16:05.649Z,12.38
2019-02-14T12:18:34.887Z,12.61
2019-02-14T12:21:04.199Z,12.33
2019-02-14T12:23:33.433Z,12.46
2019-02-14T12:26:02.696Z,12.60
2019-02-14T12:28:32.039Z,12.58
2019-02-14T12:31:01.299Z,12.63
2019-02-14T12:33:30.559Z,12.14
2019-02-14T12:35:59.830Z,11.89
2019-02-14T12:38:29.083Z,12.08
2019-02-14T12:40:58.370Z,12.35
2019-02-14T12:43:27.711Z,12.27
2019-02-14T12:45:57.087Z,12.19
2019-02-14T12:48:26.342Z,12.30
2019-02-14T12:50:55.623Z,12.74
2019-02-14T12:53:24.885Z,13.53
2019-02-14T12:55:54.174Z,13.13
2019-02-14T12:58:23.434Z,12.16
2019-02-14T13:00:52.780Z,12.68
2019-02-14T13:03:22.060Z,12.96
2019-02-14T13:05:51.352Z,13.33
2019-02-14T13:08:20.581Z,13.19
2019-02-14T13:10:49.839Z,13.49
2019-02-14T13:13:19.173Z,14.14
2019-02-14T13:15:48.454Z,14.75
2019-02-14T13:18:17.755Z,14.60
2019-02-14T13:20:47.027Z,13.90
2019-02-14T13:23:16.295Z,14.47
2019-02-14T13:25:45.595Z,14.29
2019-02-14T13:28:14.835Z,13.89
2019-02-14T13:30:44.111Z,13.77
2019-02-14T13:33:13.363Z,13.20
2019-02-14T13:35:42.698Z,12.76
2019-02-14T13:38:11.936Z,12.88
2019-02-14T13:40:41.190Z,13.48
2019-02-14T13:43:10.655Z,14.03
2019-02-14T13:45:39.990Z,14.44
2019-02-14T13:48:09.251Z,14.55
2019-02-14T13:50:38.526Z,14.23
2019-02-14T13:53:07.739Z,13.94
2019-02-14T13:55:37.074Z,13.65
2019-02-14T13:58:06.307Z,13.21
2019-02-14T14:00:35.547Z,13.55
2019-02-14T14:03:04.811Z,13.82
2019-02-14T14:05:34.090Z,13.58
2019-02-14T14:08:03.356Z,13.29
2019-02-14T14:10:32.633Z,13.25
2019-02-14T14:13:01.851Z,13.51
2019-02-14T14:15:31.071Z,13.26
2019-02-14T14:18:00.348Z,13.40
2019-02-14T14:20:29.602Z,13.73
2019-02-14T14:22:58.882Z,14.03
2019-02-14T14:25:28.115Z,14.13
2019-02-14T14:27:57.398Z,13.62
2019-02-14T14:30:26.620Z,13.76
2019-02-14T14:32:55.881Z,13.72
2019-02-14T14:35:25.098Z,13.56
2019-02-14T14:37:54.368Z,13.91
2019-02-14T14:40:23.602Z,14.09
2019-02-14T14:43:11.851Z,13.91
2019-02-14T14:45:51.401Z,13.76
2019-02-14T14:48:20.697Z,13.77
2019-02-14T14:50:49.923Z,13.75
2019-02-14T14:53:19.182Z,13.51
2019-02-14T14:55:48.437Z,13.65
2019-02-14T14:58:17.719Z,13.82
2019-02-14T15:00:47.143Z,13.47
2019-02-14T15:03:16.400Z,13.39
2019-02-14T15:05:45.626Z,13.38
2019-02-14T15:08:14.861Z,13.41
2019-02-14T15:10:44.119Z,13.56
2019-02-14T15:13:13.390Z,13.92
2019-02-14T15:15:42.617Z,14.00
2019-02-14T15:18:12.762Z,14.11
2019-02-14T15:20:42.024Z,13.88
2019-02-14T15:23:11.307Z,13.69
2019-02-14T15:25:40.542Z,13.96
2019-02-14T15:28:09.804Z,13.93
2019-02-14T15:30:39.055Z,13.25
2019-02-14T15:33:08.293Z,12.63
2019-02-14T15:35:37.618Z,12.30
2019-02-14T15:38:07.987Z,11.69
2019-02-14T15:40:37.831Z,11.18
2019-02-14T15:43:07.104Z,10.80
2019-02-14T15:45:36.448Z,10.43
2019-02-14T15:48:05.703Z,10.11
2019-02-14T15:50:34.939Z,9.83
2019-02-14T15:53:04.190Z,9.69
2019-02-14T15:55:33.438Z,9.44
2019-02-14T15:58:04.433Z,9.33
2019-02-14T16:00:35.110Z,9.15
2019-02-14T16:03:04.517Z,8.89
2019-02-14T16:05:33.748Z,8.79
2019-02-14T16:08:04.925Z,8.68
2019-02-14T16:10:33.966Z,8.57
2019-02-14T16:13:05.286Z,8.55
2019-02-14T16:15:34.493Z,8.52
2019-02-14T16:18:03.757Z,8.49
2019-02-14T16:20:32.998Z,8.33
2019-02-14T16:23:04.165Z,8.35
2019-02-14T16:25:33.244Z,8.22
2019-02-14T16:28:02.527Z,8.19
2019-02-14T16:30:33.344Z,8.08
2019-02-14T16:33:02.817Z,8.01
2019-02-14T16:35:32.064Z,7.91
2019-02-14T16:38:01.339Z,7.86
2019-02-14T16:40:38.244Z,7.75
2019-02-14T16:43:01.510Z,7.67
2019-02-14T16:45:30.744Z,7.63
2019-02-14T16:48:00.058Z,7.52
2019-02-14T16:50:29.334Z,7.46
2019-02-14T16:52:58.594Z,7.37
2019-02-14T16:55:27.879Z,7.31
2019-02-14T16:57:57.133Z,7.26
2019-02-14T17:00:26.357Z,7.14
2019-02-14T17:02:55.602Z,7.00
2019-02-14T17:05:24.853Z,6.95
2019-02-14T17:07:56.009Z,6.89
2019-02-14T17:10:25.053Z,6.76
2019-02-14T17:12:54.289Z,6.68
2019-02-14T17:15:23.560Z,6.60
2019-02-14T17:17:52.861Z,6.46
2019-02-14T17:20:22.076Z,6.35
2019-02-14T17:22:51.307Z,6.25
2019-02-14T17:25:20.535Z,6.15
2019-02-14T17:27:49.749Z,6.09
2019-02-14T17:30:18.996Z,6.03
2019-02-14T17:32:48.232Z,5.98
2019-02-14T17:35:17.500Z,5.94
2019-02-14T17:37:46.751Z,5.89
2019-02-14T17:40:15.993Z,5.76
2019-02-14T17:42:45.245Z,5.72
2019-02-14T17:45:14.521Z,5.64
2019-02-14T17:47:43.759Z,5.54
2019-02-14T17:50:13.018Z,5.46
2019-02-14T17:52:42.238Z,5.40
2019-02-14T17:55:11.520Z,5.36
2019-02-14T17:57:40.956Z,5.24
2019-02-14T18:00:10.923Z,5.09
2019-02-14T18:02:40.144Z,5.01
2019-02-14T18:05:09.515Z,4.85
2019-02-14T18:07:38.798Z,4.74
2019-02-14T18:10:09.273Z,4.74
2019-02-14T18:12:38.509Z,4.69
2019-02-14T18:15:10.092Z,4.56
2019-02-14T18:17:39.309Z,4.43
2019-02-14T18:20:09.726Z,4.34
2019-02-14T18:22:39.333Z,4.34
2019-02-14T18:25:09.924Z,4.24
2019-02-14T18:27:39.157Z,4.13
2019-02-14T18:30:09.446Z,4.21
2019-02-14T18:32:38.666Z,4.17
2019-02-14T18:35:08.655Z,4.08
2019-02-14T18:37:38.179Z,4.05
2019-02-14T18:40:08.228Z,3.99
2019-02-14T18:42:37.624Z,3.86
2019-02-14T18:45:09.265Z,3.65
2019-02-14T18:47:39.879Z,3.51
2019-02-14T18:50:10.146Z,3.41
2019-02-14T18:52:39.377Z,3.41
2019-02-14T18:55:09.156Z,3.37
2019-02-14T18:57:38.395Z,3.36
2019-02-14T19:00:10.440Z,3.27
2019-02-14T19:02:39.718Z,3.26
2019-02-14T19:05:09.958Z,3.17
2019-02-14T19:07:39.287Z,3.26
2019-02-14T19:10:09.988Z,3.26
2019-02-14T19:12:39.268Z,3.32
2019-02-14T19:15:09.217Z,3.27
2019-02-14T19:17:38.477Z,3.20
2019-02-14T19:20:08.862Z,3.26
2019-02-14T19:22:38.206Z,3.27
2019-02-14T19:25:07.554Z,3.14
2019-02-14T19:27:36.845Z,3.14
2019-02-14T19:30:06.785Z,3.07
2019-02-14T19:32:36.015Z,3.01
2019-02-14T19:35:05.984Z,2.92
2019-02-14T19:37:35.261Z,2.83
2019-02-14T19:40:05.664Z,2.74
2019-02-14T19:42:35.111Z,2.77
2019-02-14T19:45:04.357Z,2.68
2019-02-14T19:47:33.661Z,2.64
2019-02-14T19:50:02.962Z,2.61
2019-02-14T19:52:32.223Z,2.63
2019-02-14T19:55:01.472Z,2.61
2019-02-14T19:57:30.735Z,2.62
2019-02-14T19:59:59.980Z,2.63
2019-02-14T20:02:29.222Z,2.60
2019-02-14T20:04:58.460Z,2.61
2019-02-14T20:07:27.745Z,2.52
2019-02-14T20:09:56.948Z,2.54
2019-02-14T20:12:26.182Z,2.42
2019-02-14T20:14:55.450Z,2.43
2019-02-14T20:17:24.716Z,2.43
2019-02-14T20:19:53.991Z,2.42
2019-02-14T20:22:23.262Z,2.40
2019-02-14T20:24:52.505Z,2.39
2019-02-14T20:27:21.769Z,2.35
2019-02-14T20:29:51.019Z,2.26
2019-02-14T20:32:20.285Z,2.25
2019-02-14T20:34:49.533Z,2.16
2019-02-14T20:37:18.795Z,2.06
2019-02-14T20:39:48.038Z,1.94
2019-02-14T20:42:17.280Z,1.84
2019-02-14T20:44:46.558Z,1.76
2019-02-14T20:47:15.832Z,1.76
2019-02-14T20:49:45.077Z,1.82
2019-02-14T20:52:14.284Z,1.82
2019-02-14T20:54:43.531Z,1.87
2019-02-14T20:57:12.768Z,1.87
2019-02-14T20:59:42.004Z,1.96
2019-02-14T21:02:11.238Z,1.87
2019-02-14T21:04:40.475Z,1.89
2019-02-14T21:07:10.141Z,1.82
2019-02-14T21:09:39.410Z,1.83
2019-02-14T21:12:08.627Z,1.76
2019-02-14T21:14:37.895Z,1.85
2019-02-14T21:17:07.140Z,1.84
2019-02-14T21:19:36.412Z,1.92
2019-02-14T21:22:17.287Z,1.94
2019-02-14T21:24:36.609Z,1.94
2019-02-14T21:27:05.857Z,1.90
2019-02-14T21:29:35.130Z,1.86
2019-02-14T21:32:04.366Z,1.78
2019-02-14T21:34:33.624Z,1.75
2019-02-14T21:37:02.876Z,1.72
2019-02-14T21:39:32.167Z,1.78
2019-02-14T21:42:18.760Z,1.74
2019-02-14T21:44:32.374Z,1.68
2019-02-14T21:47:02.840Z,1.58
2019-02-14T21:49:32.164Z,1.53
2019-02-14T21:52:01.391Z,1.56
2019-02-14T21:54:30.660Z,1.51
2019-02-14T21:56:59.919Z,1.44
2019-02-14T21:59:29.145Z,1.25
2019-02-14T22:01:58.386Z,1.23
2019-02-14T22:04:27.676Z,1.08
2019-02-14T22:06:56.890Z,1.06
2019-02-14T22:09:26.142Z,1.05
2019-02-14T22:11:55.398Z,0.97
2019-02-14T22:14:24.631Z,1.03
2019-02-14T22:16:53.932Z,0.98
2019-02-14T22:19:23.198Z,1.06
2019-02-14T22:21:52.429Z,1.11
2019-02-14T22:24:21.699Z,1.05
2019-02-14T22:26:50.954Z,1.09
2019-02-14T22:29:20.221Z,0.93
2019-02-14T22:31:49.449Z,1.00
2019-02-14T22:34:18.683Z,1.07
2019-02-14T22:36:47.928Z,1.09
2019-02-14T22:39:17.207Z,1.10
2019-02-14T22:41:46.425Z,1.11
2019-02-14T22:44:15.695Z,1.10
2019-02-14T22:46:44.954Z,1.09
2019-02-14T22:49:14.225Z,0.97
2019-02-14T22:51:43.486Z,0.96
2019-02-14T22:54:12.772Z,0.96
2019-02-14T22:56:42.005Z,0.96
2019-02-14T22:59:11.278Z,0.90
2019-02-14T23:01:41.315Z,0.92
2019-02-14T23:04:10.591Z,0.85
2019-02-14T23:06:39.818Z,0.79
2019-02-14T23:09:10.297Z,0.78
2019-02-14T23:11:39.542Z,0.79
2019-02-14T23:14:08.858Z,0.73
2019-02-14T23:16:38.103Z,0.70
2019-02-14T23:19:07.459Z,0.75
2019-02-14T23:21:36.679Z,0.76
2019-02-14T23:24:05.949Z,0.71
2019-02-14T23:26:35.188Z,0.67
2019-02-14T23:29:04.435Z,0.69
2019-02-14T23:31:33.891Z,0.64
2019-02-14T23:34:03.148Z,0.58
2019-02-14T23:36:32.370Z,0.60
2019-02-14T23:39:01.661Z,0.56
2019-02-14T23:41:30.878Z,0.59
2019-02-14T23:44:00.166Z,0.56
2019-02-14T23:46:29.443Z,0.58
2019-02-14T23:48:58.721Z,0.48
2019-02-14T23:51:27.992Z,0.45
2019-02-14T23:53:57.232Z,0.37
2019-02-14T23:56:26.679Z,0.23
2019-02-14T23:58:55.918Z,0.27
